Tiempo atmosférico en la estación meteorológica de Bañobárez, Salamanca (748 m.)



Fecha
DESCASC
Temp. máxima en grados centígrados (hora)
DESCASC
Temp. mínima en grados centígrados (hora)
DESCASC
Temp. media en grados centígrados
DESCASC
Racha de viento máxima en m/sg (hora)
DESCASC
Velocidad máxima media en intervalos de 10 minutos(hora)
DESCASC
Precipitaciones diarias en mm
DESCASC
Precipitaciones de 00:00 a 06:00 en mm
DESCASC
Precipitaciones de 06:00 a 12:00 en mm
DESCASC
Precipitaciones de 12:00 a 18:00 en mm
DESCASC
Precipitaciones de 18:00 a 24:00 en mm
DESCASC
14-02-2019 15.4 (14:30) 0.5 (06:30) 7.9 9.17 (18:10) 5.83 (15:00) 0 0 0 0 0
13-02-2019 15.4 (16:00) -0.8 (07:00) 7.3 4.17 (14:30) 2.22 (20:20) 0 0 0 0 0
12-02-2019 11.5 (17:00) 0.3 (06:40) 5.9 6.39 (09:40) 4.17 (03:40) 0 0 0 0 0
11-02-2019 10.8 (16:20) -0.9 (07:30) 5 9.44 (15:00) 5.28 (10:50) 0 0 0 0 0
10-02-2019 10.9 (14:00) 4.6 (00:00) 7.7 12.5 (13:40) 7.5 (13:50) 2.2 0 0.4 1.8 0
09-02-2019 11.2 (15:30) 5.4 (00:00) 8.3 8.33 (16:20) 5.28 (15:30) 0 0 0 0 0
08-02-2019 9.5 (17:00) -1.6 (-00:0) 3.9 6.94 (15:20) 4.72 (15:20) 0 0 0 0 0
07-02-2019 11.5 (16:30) -1.1 (-00:0) 5.2 6.67 (13:40) 2.78 (02:20) 0 0 0 0 0
06-02-2019 16 (15:50) 0.8 (04:30) 8.4 6.67 (16:40) 4.44 (17:10) 0 0 0 0 0
05-02-2019 14.5 (16:10) -0.9 (05:50) 6.8 3.61 (23:10) 2.78 (23:10) 0 0 0 0 0
04-02-2019 11.4 (16:10) -2.7 (-00:0) 4.3 4.17 (15:50) 2.5 (02:00) 0 0 0 0 0
03-02-2019 6.8 (15:30) -2.9 (-00:0) 2 7.5 (14:40) 4.44 (14:30) 0 0 0 0 0
02-02-2019 6.2 (15:10) -0.1 (00:00) 3 13.89 (15:20) 8.33 (14:40) 0 0 0 0 0
01-02-2019 7.1 (00:00) 1.8 (00:00) 4.4 18.33 (11:00) 10.28 (10:10) 15.2 0.2 7.6 6.2 1.2
31-01-2019 11 (15:10) 7.1 (00:00) 9 17.22 (14:10) 10 (14:20) 12 0 0 1.6 10.4
30-01-2019 9.2 (23:59) 1.1 (00:00) 5.1 10.56 (19:00) 6.39 (23:59) 6.2 0 0 1.4 4.8
29-01-2019 9.1 (14:00) 2.7 (00:00) 5.9 14.44 (14:40) 8.61 (14:40) 0 0 0 0 0
28-01-2019 9.8 (16:20) 2.5 (00:00) 6.2 10.83 (17:40) 7.22 (16:20) 0 0 0 0 0
27-01-2019 8.4 (14:20) 2.5 (00:00) 5.4 11.39 (16:20) 7.78 (16:20) 0 0 0 0 0
26-01-2019 13.2 (16:40) -0.3 (00:00) 6.4 5 (23:10) 3.61 (00:50) 0 0 0 0 0
25-01-2019 13.8 (15:40) -0.3 (00:00) 6.8 7.78 (14:40) 5 (13:30) 0 0 0 0 0
24-01-2019 13.3 (16:10) 5.5 (00:00) 9.4 13.33 (14:30) 8.61 (14:10) 0 0 0 0 0
23-01-2019 10.9 (16:00) 4.6 (00:00) 7.7 13.33 (15:20) 7.78 (15:50) 0 0 0 0 0
22-01-2019 6.6 (13:40) -0.9 (-00:0) 2.8 8.89 (13:50) 5.28 (14:40) 1.6 0 0 1.6 0
21-01-2019 8 (15:50) -3.5 (-00:0) 2.3 4.72 (14:20) 2.22 (14:40) 0 0 0 0 0
20-01-2019 8.9 (15:20) 1.7 (00:00) 5.3 10.28 (02:00) 6.94 (12:40) 6 6 0 0 0
19-01-2019 7 (23:59) -0.7 (-00:0) 3.2 11.11 (17:20) 6.94 (17:20) 5.8 0 1.8 3 1

Gráficas

Temp. máximas Temp. mínimas Temp. medias Precipitaciones Rachas de viento máximas Velocidades máximas media en intervalos de 10 minutos

Datos horarios

Fecha y hora oficial Temperatura (ºC) Velocidad del viento (km/h) Dirección del viento Racha (km/h) Dirección de racha Precipitación (mm) Presión (hPa) Tendencia (hPa) Humedad (%)
2019-02-17 23:00:00 8.6 5 Sur 10 Sur 0 -- -- 72
2019-02-17 22:00:00 8.2 4 Sur 6 Sur 0 -- -- 73
2019-02-17 21:00:00 8.3 3 Sudeste 8 Sur 0 -- -- 70
2019-02-17 20:00:00 7.9 3 Sur 13 Sur 0 -- -- 69
2019-02-17 19:00:00 9.7 9 Sur 23 Sur 0 -- -- 61
2019-02-17 18:00:00 11.5 16 Sudoeste 35 Sur 0 -- -- 50
2019-02-17 17:00:00 13.1 16 Sur 29 Sudoeste 0 -- -- 45
2019-02-17 16:00:00 12.9 16 Sudoeste 30 Sur 0 -- -- 48
2019-02-17 15:00:00 13.1 17 Sur 30 Sur 0 -- -- 50
2019-02-17 14:00:00 13.4 17 Sur 28 Sur 0 -- -- 49
2019-02-17 13:00:00 12.8 17 Sur 29 Sur 0 -- -- 49
2019-02-17 12:00:00 10.4 15 Sur 24 Sur 0 -- -- 53
2019-02-17 11:00:00 8.4 10 Sur 17 Sur 0 -- -- 56
2019-02-17 10:00:00 6.2 4 Sudeste 6 Sudeste 0 -- -- 69
2019-02-17 09:00:00 2.7 3 Sur 10 Sudeste 0 -- -- 81
2019-02-17 08:00:00 1.8 2 Norte 14 Sudeste 0 -- -- 84
2019-02-17 07:00:00 1.1 3 Sur 8 Sudeste 0 -- -- 90
2019-02-17 06:00:00 0.4 4 Sudeste 11 Este 0 -- -- 89
2019-02-17 05:00:00 0.7 3 Sudeste 9 Sur 0 -- -- 82
2019-02-17 04:00:00 3.3 8 Sur 10 Sur 0 -- -- 76
2019-02-17 03:00:00 3.8 8 Sur 13 Sur 0 -- -- 75
2019-02-17 02:00:00 3.8 8 Sur 10 Sudeste 0 -- -- 75
2019-02-17 01:00:00 4.4 7 Sur 11 Sudoeste 0 -- -- 74
2019-02-17 00:00:00 5.5 7 Sur 10 Sudoeste 0 -- -- 69
2019-02-16 23:00:00 6 6 Sudoeste 11 Sudoeste 0 -- -- 73
2019-02-16 22:00:00 6.5 4 Sudoeste 15 Sudoeste 0 -- -- 70
2019-02-16 21:00:00 9.7 10 Sudoeste 18 Sudoeste 0 -- -- 60
2019-02-16 20:00:00 10.8 4 Sudoeste 15 Sudoeste 0 -- -- 55
2019-02-16 19:00:00 13.2 8 Sudoeste 21 Sudoeste 0 -- -- 48
2019-02-16 18:00:00 16.1 12 Sudoeste 20 Sudoeste 0 -- -- 41
2019-02-16 17:00:00 15.7 2 Sudeste 8 Oeste 0 -- -- 45
2019-02-16 16:00:00 15.2 4 Noroeste 11 Noroeste 0 -- -- 48
2019-02-16 15:00:00 14.6 4 Norte 9 Sur 0 -- -- 51
2019-02-16 14:00:00 13 3 Norte 6 Noroeste 0 -- -- 55
2019-02-16 13:00:00 11.2 2 Este 8 Este 0 -- -- 58
2019-02-16 12:00:00 8.8 2 Nordeste 9 Sudeste 0 -- -- 66
2019-02-16 11:00:00 7.2 3 Este 11 Este 0 -- -- 70
2019-02-16 10:00:00 3.7 4 Norte 7 Nordeste 0 -- -- 79
2019-02-16 09:00:00 0.3 3 Norte 4 Norte 0 -- -- 87
2019-02-16 08:00:00 -0.1 3 Norte 8 Este 0 -- -- 84
2019-02-16 07:00:00 2.5 8 Este 13 Este 0 -- -- 78
2019-02-16 06:00:00 3 9 Este 13 Este 0 -- -- 78
2019-02-16 05:00:00 3.6 9 Este 12 Este 0 -- -- 77
2019-02-16 04:00:00 3.7 7 Este 12 Sudeste 0 -- -- 76
2019-02-16 03:00:00 4.3 9 Este 13 Este 0 -- -- 76
2019-02-16 02:00:00 4.8 10 Este 13 Este 0 -- -- 74
2019-02-16 01:00:00 5.2 10 Este 14 Este 0 -- -- 73
2019-02-16 00:00:00 6.8 9 Este 13 Este 0 -- -- 69
2019-02-15 23:00:00 7.1 10 Este 17 Este 0 -- -- 69
2019-02-15 22:00:00 7.7 4 Este 15 Nordeste 0 -- -- 68
2019-02-15 21:00:00 9.8 9 Nordeste 13 Nordeste 0 -- -- 60
2019-02-15 20:00:00 8.8 6 Nordeste 7 Nordeste 0 -- -- 62
2019-02-15 19:00:00 12.5 4 Nordeste 6 Nordeste 0 -- -- 53
2019-02-15 18:00:00 15.9 5 Nordeste 13 Nordeste 0 -- -- 42
2019-02-15 17:00:00 16.5 6 Este 15 Nordeste 0 -- -- 37
2019-02-15 16:00:00 16.7 4 Este 19 Sudeste 0 -- -- 38
2019-02-15 15:00:00 16.4 7 Sudeste 18 Este 0 -- -- 38
2019-02-15 14:00:00 15.4 6 Sudeste 13 Este 0 -- -- 42
2019-02-15 13:00:00 14.2 3 Sudeste 12 Sudeste 0 -- -- 47
2019-02-15 12:00:00 11.8 11 Sudeste 17 Este 0 -- -- 54
2019-02-15 11:00:00 10.3 10 Sudeste 17 Este 0 -- -- 57
2019-02-15 10:00:00 5.9 11 Este 15 Este 0 -- -- 72
2019-02-15 09:00:00 3.1 8 Sudeste 11 Sudeste 0 -- -- 79
2019-02-15 08:00:00 2.5 8 Sudeste 12 Sudeste 0 -- -- 77
2019-02-15 07:00:00 2.2 8 Sudeste 10 Sudeste 0 -- -- 78
2019-02-15 06:00:00 2.3 4 Sudeste 11 Sudeste 0 -- -- 81
2019-02-15 05:00:00 1.8 6 Sudeste 11 Sudeste 0 -- -- 80
2019-02-15 04:00:00 2.1 3 Este 15 Sudeste 0 -- -- 79
2019-02-15 03:00:00 3.6 8 Sudeste 13 Sudeste 0 -- -- 76
2019-02-15 02:00:00 4.1 6 Sur 12 Sur 0 -- -- 74
2019-02-15 01:00:00 4.2 7 Sur 12 Sudeste 0 -- -- 74
2019-02-15 00:00:00 3.5 0 Calma 7 Sur 0 -- -- 75
2019-02-14 23:00:00 7.2 6 Sur 19 Sur 0 -- -- 65
2019-02-14 22:00:00 7.4 11 Sur 19 Sur 0 -- -- 62
2019-02-14 21:00:00 8.4 12 Sur 22 Sur 0 -- -- 58
2019-02-14 20:00:00 8.5 6 Sur 20 Sur 0 -- -- 58
2019-02-14 19:00:00 11.2 11 Sur 33 Sur 0 -- -- 49
2019-02-14 18:00:00 13.7 16 Sur 29 Sur 0 -- -- 42
2019-02-14 17:00:00 14.8 17 Sur 30 Sur 0 -- -- 43
2019-02-14 16:00:00 15.1 18 Sur 31 Sur 0 -- -- 42
2019-02-14 15:00:00 15.1 21 Sur 32 Sur 0 -- -- 43
2019-02-14 14:00:00 15.1 14 Sur 25 Sur 0 -- -- 45
2019-02-14 13:00:00 13.5 9 Sur 17 Sur 0 -- -- 48
2019-02-14 12:00:00 11.8 3 Sudoeste 9 Sur 0 -- -- 56
2019-02-14 11:00:00 9.2 5 Sur 9 Sur 0 -- -- 63
2019-02-14 10:00:00 5.6 3 Sudeste 11 Sur 0 -- -- 75
2019-02-14 09:00:00 1.6 7 Sur 10 Sur 0 -- -- 84
2019-02-14 08:00:00 2.1 4 Sur 15 Sudeste 0 -- -- 81
2019-02-14 07:00:00 1.5 10 Sudeste 15 Sudeste 0 -- -- 86
2019-02-14 06:00:00 0.9 0 Calma 9 Sudeste 0 -- -- 85
2019-02-14 05:00:00 2.1 8 Sudeste 11 Sudeste 0 -- -- 84
2019-02-14 04:00:00 2.2 6 Sudeste 9 Sudeste 0 -- -- 83
2019-02-14 03:00:00 2.7 7 Sudeste 12 Este 0 -- -- 81
2019-02-14 02:00:00 2.5 7 Este 10 Este 0 -- -- 82
2019-02-14 01:00:00 3.3 6 Sudeste 9 Este 0 -- -- 79
2019-02-14 00:00:00 3.6 7 Este 9 Este 0 -- -- 83
2019-02-13 23:00:00 3.9 6 Sudeste 9 Sudeste 0 -- -- 80
2019-02-13 22:00:00 6 4 Sur 9 Sur 0 -- -- 74
2019-02-13 21:00:00 7.8 6 Sur 14 Sur 0 -- -- 67
2019-02-13 20:00:00 7.1 6 Este 8 Este 0 -- -- 71
2019-02-13 19:00:00 11 5 Este 7 Nordeste 0 -- -- 61
2019-02-13 18:00:00 14.5 5 Nordeste 10 Este 0 -- -- 48
2019-02-13 17:00:00 14.6 5 Este 12 Este 0 -- -- 48
2019-02-13 16:00:00 15.4 4 Sudoeste 10 Sudoeste 0 -- -- 45
2019-02-13 15:00:00 14.8 3 Sur 15 Norte 0 -- -- 46
2019-02-13 14:00:00 13.5 3 Nordeste 9 Sur 0 -- -- 50
2019-02-13 13:00:00 12.7 2 Este 10 Sudoeste 0 -- -- 52
2019-02-13 12:00:00 11.6 5 Sur 10 Sudeste 0 -- -- 53
2019-02-13 11:00:00 9.6 0 Calma 6 Sudeste 0 -- -- 65
2019-02-13 10:00:00 5.6 4 Sudeste 7 Sur 0 -- -- 75
2019-02-13 09:00:00 1 3 Sur 6 Sur 0 -- -- 83
2019-02-13 08:00:00 -0.8 4 Sur 6 Sur 0 -- -- 87
2019-02-13 07:00:00 -0.8 4 Sudeste 6 Sudeste 0 -- -- 89
2019-02-13 06:00:00 -0.2 3 Sudeste 9 Sudeste 0 -- -- 90
2019-02-13 05:00:00 0.1 4 Sudeste 7 Sudeste 0 -- -- 89
2019-02-13 04:00:00 0.9 2 Sudeste 4 Este 0 -- -- 86
2019-02-13 03:00:00 1 2 Sur 5 Sudeste 0 -- -- 86
2019-02-13 02:00:00 2.7 4 Este 5 Sudeste 0 -- -- 77
2019-02-13 01:00:00 2.7 3 Sudeste 6 Sur 0 -- -- 81
2019-02-13 00:00:00 3.1 3 Sur 5 Sur 0 -- -- 79
2019-02-12 23:00:00 3.8 2 Sudeste 6 Sudeste 0 -- -- 76
2019-02-12 22:00:00 3.5 4 Sudeste 8 Este 0 -- -- 77
2019-02-12 21:00:00 3.9 7 Este 9 Este 0 -- -- 77
2019-02-12 20:00:00 4.6 4 Este 6 Este 0 -- -- 73
2019-02-12 19:00:00 9.1 3 Este 8 Nordeste 0 -- -- 62
2019-02-12 18:00:00 11.4 4 Este 10 Este 0 -- -- 49
2019-02-12 17:00:00 11.5 5 Sudeste 10 Este 0 -- -- 52
2019-02-12 16:00:00 11 5 Este 11 Este 0 -- -- 53
2019-02-12 15:00:00 10.7 5 Sudeste 15 Este 0 -- -- 57
2019-02-12 14:00:00 9.1 7 Este 16 Este 0 -- -- 60
2019-02-12 13:00:00 7.8 9 Nordeste 18 Nordeste 0 -- -- 66
2019-02-12 12:00:00 6.2 9 Nordeste 15 Nordeste 0 -- -- 75
2019-02-12 11:00:00 4.6 8 Este 18 Este 0 -- -- 80
2019-02-12 10:00:00 2.4 12 Este 23 Este 0 -- -- 87
2019-02-12 09:00:00 0.8 11 Este 18 Este 0 -- -- 91
2019-02-12 08:00:00 0.8 9 Este 16 Este 0 -- -- 90
2019-02-12 07:00:00 0.4 8 Nordeste 12 Nordeste 0 -- -- 89
2019-02-12 06:00:00 1.1 9 Este 14 Este 0 -- -- 86
2019-02-12 05:00:00 1.6 10 Este 20 Este 0 -- -- 84
2019-02-12 04:00:00 2.1 14 Este 23 Este 0 -- -- 82
2019-02-12 03:00:00 2.3 13 Este 20 Este 0 -- -- 81
2019-02-12 02:00:00 2.5 12 Este 21 Este 0 -- -- 79
2019-02-12 01:00:00 3.3 12 Este 18 Este 0 -- -- 76
2019-02-12 00:00:00 2.7 4 Este 16 Nordeste 0 -- -- 76
2019-02-11 23:00:00 4.7 12 Este 19 Nordeste 0 -- -- 70
2019-02-11 22:00:00 4.7 5 Este 12 Nordeste 0 -- -- 69
2019-02-11 21:00:00 5.7 9 Nordeste 12 Nordeste 0 -- -- 66
2019-02-11 20:00:00 6.8 6 Nordeste 12 Nordeste 0 -- -- 61
2019-02-11 19:00:00 8.4 6 Nordeste 16 Nordeste 0 -- -- 58
2019-02-11 18:00:00 10.2 11 Nordeste 22 Nordeste 0 -- -- 54
2019-02-11 17:00:00 10.5 14 Nordeste 27 Este 0 -- -- 50
2019-02-11 16:00:00 10.6 14 Nordeste 28 Este 0 -- -- 52
2019-02-11 15:00:00 10.2 17 Este 34 Nordeste 0 -- -- 54
2019-02-11 14:00:00 9.4 14 Este 28 Nordeste 0 -- -- 67
2019-02-11 13:00:00 8.2 15 Este 26 Este 0 -- -- 70
2019-02-11 12:00:00 6.8 15 Este 25 Este 0 -- -- 78
2019-02-11 11:00:00 5 19 Este 32 Nordeste 0 -- -- 88
2019-02-11 10:00:00 2.6 12 Este 17 Este 0 -- -- 95
2019-02-11 09:00:00 1.1 6 Nordeste 10 Nordeste 0 -- -- 98
2019-02-11 08:00:00 -0.7 6 Nordeste 8 Nordeste 0 -- -- 97
2019-02-11 07:00:00 -0.3 0 Calma 4 Norte 0 -- -- 96
2019-02-11 06:00:00 -0.6 0 Calma 4 Oeste 0 -- -- 95
2019-02-11 05:00:00 0.9 0 Calma 9 Oeste 0 -- -- 95
2019-02-11 04:00:00 1 4 Oeste 8 Oeste 0 -- -- 95
2019-02-11 03:00:00 1.6 2 Oeste 7 Oeste 0 -- -- 94
2019-02-11 02:00:00 2.6 5 Oeste 6 Oeste 0 -- -- 95
2019-02-11 01:00:00 4 0 Calma 17 Oeste 0 -- -- 91
2019-02-11 00:00:00 4.6 7 Oeste 16 Oeste 0 -- -- 92
2019-02-10 23:00:00 5 4 Oeste 12 Oeste 0 -- -- 89
2019-02-10 22:00:00 5.5 6 Oeste 15 Oeste 0 -- -- 89
2019-02-10 21:00:00 7.3 9 Oeste 23 Oeste 0 -- -- 81
2019-02-10 20:00:00 8.7 12 Oeste 22 Oeste 0 -- -- 82
2019-02-10 19:00:00 10.2 13 Sudoeste 27 Sudoeste 0 -- -- 91
2019-02-10 18:00:00 10.6 17 Oeste 29 Sudoeste 0.2 -- -- 96
2019-02-10 17:00:00 10 11 Sudoeste 36 Sudoeste 1.4 -- -- 95
2019-02-10 16:00:00 9.8 17 Sudoeste 35 Sudoeste 0.2 -- -- 94
2019-02-10 15:00:00 10.4 16 Sudoeste 39 Sudoeste 0 -- -- 88
2019-02-10 14:00:00 10.9 23 Sudoeste 45 Oeste 0 -- -- 84
2019-02-10 13:00:00 10.5 24 Sudoeste 41 Sudoeste 0 -- -- 84
2019-02-10 12:00:00 9 18 Sudoeste 35 Sudoeste 0 -- -- 91
2019-02-10 11:00:00 8.3 19 Sudoeste 33 Sudoeste 0 -- -- 93
2019-02-10 10:00:00 7.5 16 Sudoeste 34 Sudoeste 0 -- -- 95
2019-02-10 09:00:00 7.2 19 Sudoeste 32 Sudoeste 0.2 -- -- 95
2019-02-10 08:00:00 7 15 Sudoeste 29 Sudoeste 0.2 -- -- 95
2019-02-10 07:00:00 7 16 Sudoeste 27 Sudoeste 0 -- -- 93
2019-02-10 06:00:00 6.6 11 Sur 30 Sudoeste 0 -- -- 93
2019-02-10 05:00:00 6.4 14 Sudoeste 25 Sudoeste 0 -- -- 93
2019-02-10 04:00:00 6.7 11 Sur 20 Sudoeste 0 -- -- 89
2019-02-10 03:00:00 6.9 12 Sudoeste 28 Sudoeste 0 -- -- 88
2019-02-10 02:00:00 6.9 8 Sudoeste 19 Sudoeste 0 -- -- 87
2019-02-10 01:00:00 6.8 6 Sudoeste 18 Sudoeste 0 -- -- 86
2019-02-10 00:00:00 7.2 13 Sudoeste 20 Sudoeste 0 -- -- 84
2019-02-09 23:00:00 7 7 Sudoeste 21 Sudoeste 0 -- -- 84
2019-02-09 22:00:00 6.9 16 Sudoeste 24 Sudoeste 0 -- -- 83
2019-02-09 21:00:00 7.4 12 Sur 22 Sudoeste 0 -- -- 80
2019-02-09 20:00:00 8.1 10 Sudoeste 19 Oeste 0 -- -- 73
2019-02-09 19:00:00 8.6 13 Oeste 27 Oeste 0 -- -- 70
2019-02-09 18:00:00 9.1 13 Oeste 28 Sudoeste 0 -- -- 73
2019-02-09 17:00:00 9.9 15 Sudoeste 30 Sudoeste 0 -- -- 69
2019-02-09 16:00:00 10.3 18 Sudoeste 29 Sudoeste 0 -- -- 67
2019-02-09 15:00:00 10.8 17 Sudoeste 30 Oeste 0 -- -- 67
2019-02-09 14:00:00 10.4 13 Oeste 22 Sudoeste 0 -- -- 70
2019-02-09 13:00:00 9.6 10 Sudoeste 19 Sudoeste 0 -- -- 72
2019-02-09 12:00:00 8.8 7 Sudoeste 13 Sur 0 -- -- 77
2019-02-09 11:00:00 8.2 4 Sudoeste 10 Sudoeste 0 -- -- 84
2019-02-09 10:00:00 6.5 4 Sudoeste 8 Sudoeste 0 -- -- 91
2019-02-09 09:00:00 5.6 4 Sudoeste 5 Sudoeste 0 -- -- 92
2019-02-09 08:00:00 5.6 4 Sudoeste 9 Sur 0 -- -- 91
2019-02-09 07:00:00 5.8 5 Sudoeste 9 Sur 0 -- -- 92
2019-02-09 06:00:00 5.7 4 Sur 7 Sudeste 0 -- -- 92
2019-02-09 05:00:00 5.9 3 Sur 8 Sudoeste 0 -- -- 91
2019-02-09 04:00:00 6.1 4 Sudoeste 12 Sur 0 -- -- 91
2019-02-09 03:00:00 5.8 5 Sur 9 Sur 0 -- -- 91
2019-02-09 02:00:00 5.9 5 Sur 13 Sudoeste 0 -- -- 89
2019-02-09 01:00:00 6.3 8 Sudoeste 12 Sudoeste 0 -- -- 88
2019-02-09 00:00:00 5.9 5 Sur 9 Sur 0 -- -- 87
2019-02-08 23:00:00 5.8 5 Sur 9 Sur 0 -- -- 88
2019-02-08 22:00:00 5.6 3 Sudoeste 14 Sudoeste 0 -- -- 86
2019-02-08 21:00:00 5.4 8 Sudoeste 12 Sudoeste 0 -- -- 87
2019-02-08 20:00:00 5.8 10 Oeste 16 Oeste 0 -- -- 85
2019-02-08 19:00:00 6.7 10 Oeste 16 Noroeste 0 -- -- 82
2019-02-08 18:00:00 8.5 13 Noroeste 23 Oeste 0 -- -- 77
2019-02-08 17:00:00 9.5 9 Oeste 19 Oeste 0 -- -- 78
2019-02-08 16:00:00 9 11 Oeste 25 Noroeste 0 -- -- 79
2019-02-08 15:00:00 8.2 15 Oeste 23 Oeste 0 -- -- 82
2019-02-08 14:00:00 8.3 13 Noroeste 20 Noroeste 0 -- -- 84
2019-02-08 13:00:00 6 9 Oeste 15 Oeste 0 -- -- 91
2019-02-08 12:00:00 5.5 7 Oeste 12 Oeste 0 -- -- 96
2019-02-08 11:00:00 3.3 4 Oeste 9 Noroeste 0 -- -- 97
2019-02-08 10:00:00 2.4 6 Oeste 11 Sudoeste 0 -- -- 96
2019-02-08 09:00:00 -1.3 3 Sudoeste 5 Sudoeste 0 -- -- 96
2019-02-08 08:00:00 0.4 4 Sur 14 Sur 0 -- -- 96
2019-02-08 07:00:00 0.3 9 Sur 12 Sur 0 -- -- 96
2019-02-08 06:00:00 0.1 2 Sur 9 Sur 0 -- -- 96
2019-02-08 05:00:00 0.3 5 Sur 9 Sur 0 -- -- 96
2019-02-08 04:00:00 0 5 Sur 8 Sur 0 -- -- 95
2019-02-08 03:00:00 0.5 4 Sur 6 Sur 0 -- -- 95
2019-02-08 02:00:00 1.1 0 Calma 7 Sur 0 -- -- 94
2019-02-08 01:00:00 0.9 4 Sur 6 Sur 0 -- -- 94
2019-02-08 00:00:00 0.8 0 Calma 5 Noroeste 0 -- -- 92
2019-02-07 23:00:00 1.3 0 Calma 6 Sur 0 -- -- 89
2019-02-07 22:00:00 2.3 3 Sur 5 Sur 0 -- -- 90
2019-02-07 21:00:00 3 3 Sudeste 3 Sudeste 0 -- -- 89
2019-02-07 20:00:00 3.9 2 Sudeste 3 Sudeste 0 -- -- 82
2019-02-07 19:00:00 8.5 0 Calma 10 Noroeste 0 -- -- 69
2019-02-07 18:00:00 11 7 Oeste 15 Norte 0 -- -- 62
2019-02-07 17:00:00 11.4 8 Noroeste 16 Norte 0 -- -- 61
2019-02-07 16:00:00 11.4 6 Noroeste 12 Noroeste 0 -- -- 61
2019-02-07 15:00:00 10.5 6 Norte 17 Norte 0 -- -- 65
2019-02-07 14:00:00 10.1 4 Noroeste 24 Oeste 0 -- -- 68
2019-02-07 13:00:00 9.6 6 Sudoeste 12 Oeste 0 -- -- 72
2019-02-07 12:00:00 7.8 5 Noroeste 9 Noroeste 0 -- -- 82
2019-02-07 11:00:00 4.3 5 Sur 10 Sur 0 -- -- 95
2019-02-07 10:00:00 1.6 2 Sur 9 Sur 0 -- -- 97
2019-02-07 09:00:00 -0.4 6 Sur 10 Sur 0 -- -- 96
2019-02-07 08:00:00 -0.9 2 Sur 8 Sur 0 -- -- 95
2019-02-07 07:00:00 0.2 2 Sur 8 Sur 0 -- -- 95
2019-02-07 06:00:00 1.4 0 Calma 8 Oeste 0 -- -- 94
2019-02-07 05:00:00 0.3 0 Calma 6 Sudoeste 0 -- -- 90
2019-02-07 04:00:00 2.5 6 Sudoeste 10 Sudoeste 0 -- -- 89
2019-02-07 03:00:00 1.9 4 Sudeste 14 Sudoeste 0 -- -- 83
2019-02-07 02:00:00 3.2 2 Sudeste 11 Sudoeste 0 -- -- 79
2019-02-07 01:00:00 4.4 6 Oeste 9 Oeste 0 -- -- 79
2019-02-07 00:00:00 4.5 2 Oeste 14 Oeste 0 -- -- 73
2019-02-06 23:00:00 7 10 Oeste 15 Oeste 0 -- -- 66
2019-02-06 22:00:00 8.1 10 Oeste 20 Oeste 0 -- -- 58
2019-02-06 21:00:00 9 10 Oeste 21 Oeste 0 -- -- 58
2019-02-06 20:00:00 10.3 13 Oeste 21 Oeste 0 -- -- 51
2019-02-06 19:00:00 11.4 14 Oeste 21 Oeste 0 -- -- 46
2019-02-06 18:00:00 13.6 12 Oeste 24 Oeste 0 -- -- 44
2019-02-06 17:00:00 15 15 Oeste 24 Noroeste 0 -- -- 41
2019-02-06 16:00:00 15.9 12 Oeste 20 Oeste 0 -- -- 45
2019-02-06 15:00:00 15.2 10 Sudoeste 21 Oeste 0 -- -- 47
2019-02-06 14:00:00 14.2 10 Sudoeste 19 Sudoeste 0 -- -- 56
2019-02-06 13:00:00 13.4 11 Sudoeste 17 Sudoeste 0 -- -- 60
2019-02-06 12:00:00 11.7 7 Sur 14 Sudoeste 0 -- -- 68
2019-02-06 11:00:00 8.7 8 Sur 13 Sur 0 -- -- 78
2019-02-06 10:00:00 5.9 0 Calma 6 Sur 0 -- -- 86
2019-02-06 09:00:00 1.6 3 Sur 6 Sur 0 -- -- 95
2019-02-06 08:00:00 1.4 4 Sudeste 7 Sur 0 -- -- 95
2019-02-06 07:00:00 1.1 4 Sur 8 Sur 0 -- -- 94
2019-02-06 06:00:00 1.4 5 Sur 8 Sur 0 -- -- 95
2019-02-06 05:00:00 1.1 4 Sudeste 4 Sudeste 0 -- -- 95
2019-02-06 04:00:00 1.1 0 Calma 2 Sur 0 -- -- 91
2019-02-06 03:00:00 1.9 0 Calma 5 Sur 0 -- -- 90
2019-02-06 02:00:00 1.9 4 Sur 6 Sur 0 -- -- 91
2019-02-06 01:00:00 3.6 5 Sur 9 Sur 0 -- -- 87
2019-02-06 00:00:00 4.4 4 Sudeste 13 Sudeste 0 -- -- 85
2019-02-05 23:00:00 4.9 9 Este 13 Este 0 -- -- 83
2019-02-05 22:00:00 4.7 6 Este 7 Este 0 -- -- 84
2019-02-05 21:00:00 5.1 3 Este 4 Sudeste 0 -- -- 83
2019-02-05 20:00:00 5.4 0 Calma 2 Este 0 -- -- 78
2019-02-05 19:00:00 10.5 0 Calma 9 Noroeste 0 -- -- 61
2019-02-05 18:00:00 13.9 6 Norte 11 Noroeste 0 -- -- 54
2019-02-05 17:00:00 14.5 6 Noroeste 11 Noroeste 0 -- -- 53
2019-02-05 16:00:00 14.3 4 Norte 12 Oeste 0 -- -- 55
2019-02-05 15:00:00 14.2 5 Noroeste 10 Noroeste 0 -- -- 57
2019-02-05 14:00:00 13.7 3 Noroeste 8 Este 0 -- -- 59
2019-02-05 13:00:00 12.7 2 Nordeste 8 Sudeste 0 -- -- 61
2019-02-05 12:00:00 10.8 4 Este 8 Este 0 -- -- 63
2019-02-05 11:00:00 7.6 4 Este 6 Este 0 -- -- 58
2019-02-05 10:00:00 4.4 0 Calma 2 Sudeste 0 -- -- 61
2019-02-05 09:00:00 -0.4 3 Sudeste 10 Sudeste 0 -- -- 72
2019-02-05 08:00:00 -0.6 7 Sudeste 8 Sudeste 0 -- -- 73
2019-02-05 07:00:00 -0.8 3 Sur 6 Sur 0 -- -- 73
2019-02-05 06:00:00 -0.8 3 Este 6 Este 0 -- -- 73
2019-02-05 05:00:00 -0.3 5 Sudeste 8 Este 0 -- -- 69
2019-02-05 04:00:00 0.5 4 Sudeste 7 Este 0 -- -- 67
2019-02-05 03:00:00 0.5 4 Sudeste 7 Sur 0 -- -- 62
2019-02-05 02:00:00 0.5 4 Sudeste 7 Sur 0 -- -- 60
2019-02-05 01:00:00 0.5 4 Sur 7 Sur 0 -- -- 63
2019-02-05 00:00:00 1.2 3 Sur 6 Sur 0 -- -- 57
2019-02-04 23:00:00 0.8 4 Sur 7 Sur 0 -- -- 66
2019-02-04 22:00:00 0.9 0 Calma 2 Sudeste 0 -- -- 64
2019-02-04 21:00:00 1.8 0 Calma 4 Sudoeste 0 -- -- 64
2019-02-04 20:00:00 2.7 0 Calma 3 Sudoeste 0 -- -- 62
2019-02-04 19:00:00 6.4 0 Calma 6 Noroeste 0 -- -- 51
2019-02-04 18:00:00 10.4 3 Norte 10 Norte 0 -- -- 33
2019-02-04 17:00:00 11.3 6 Noroeste 10 Norte 0 -- -- 30
2019-02-04 16:00:00 11.3 6 Noroeste 15 Noroeste 0 -- -- 39
2019-02-04 15:00:00 11 5 Noroeste 10 Oeste 0 -- -- 47
2019-02-04 14:00:00 10.2 2 Norte 7 Norte 0 -- -- 39
2019-02-04 13:00:00 8.8 0 Calma 8 Sudeste 0 -- -- 43
2019-02-04 12:00:00 7.1 3 Este 6 Noroeste 0 -- -- 42
2019-02-04 11:00:00 4.2 0 Calma 5 Sudeste 0 -- -- 63
2019-02-04 10:00:00 0.7 2 Este 8 Sudeste 0 -- -- 74
2019-02-04 09:00:00 -2.3 4 Sudeste 10 Este 0 -- -- 84
2019-02-04 08:00:00 -2.4 6 Sudeste 8 Sudeste 0 -- -- 82
2019-02-04 07:00:00 -1.5 5 Sudeste 11 Sudeste 0 -- -- 79
2019-02-04 06:00:00 -2 8 Este 10 Este 0 -- -- 82
2019-02-04 05:00:00 -2.1 0 Calma 13 Sudeste 0 -- -- 82
2019-02-04 04:00:00 -1.4 7 Sudeste 13 Sudeste 0 -- -- 80
2019-02-04 03:00:00 -2 6 Sudeste 9 Sudeste 0 -- -- 83
2019-02-04 02:00:00 -2.3 9 Este 10 Este 0 -- -- 84
2019-02-04 01:00:00 -1.4 2 Sudeste 5 Sudeste 0 -- -- 82
2019-02-04 00:00:00 -1.8 3 Sudeste 4 Sudeste 0 -- -- 82
2019-02-03 23:00:00 -2.1 0 Calma 5 Este 0 -- -- 82
2019-02-03 22:00:00 -1 5 Este 8 Este 0 -- -- 77
2019-02-03 21:00:00 -0.7 5 Sudeste 8 Este 0 -- -- 74
2019-02-03 20:00:00 0.1 3 Este 5 Este 0 -- -- 68
2019-02-03 19:00:00 3.8 4 Nordeste 11 Nordeste 0 -- -- 54
2019-02-03 18:00:00 6.2 8 Nordeste 18 Nordeste 0 -- -- 45
2019-02-03 17:00:00 6.7 10 Nordeste 22 Nordeste 0 -- -- 43
2019-02-03 16:00:00 6.7 12 Nordeste 22 Nordeste 0 -- -- 44
2019-02-03 15:00:00 6.4 12 Nordeste 27 Nordeste 0 -- -- 48
2019-02-03 14:00:00 5.8 15 Este 25 Norte 0 -- -- 51
2019-02-03 13:00:00 5.1 12 Nordeste 24 Nordeste 0 -- -- 55
2019-02-03 12:00:00 4.2 11 Nordeste 19 Nordeste 0 -- -- 61
2019-02-03 11:00:00 2.3 8 Nordeste 14 Nordeste 0 -- -- 78
2019-02-03 10:00:00 0.1 6 Nordeste 10 Nordeste 0 -- -- 90
2019-02-03 09:00:00 -1.4 6 Nordeste 9 Nordeste 0 -- -- 96
2019-02-03 08:00:00 -1.5 6 Nordeste 10 Nordeste 0 -- -- 96
2019-02-03 07:00:00 -2.4 4 Norte 6 Norte 0 -- -- 95
2019-02-03 06:00:00 -2.6 3 Noroeste 6 Noroeste 0 -- -- 95
2019-02-03 05:00:00 -2.9 3 Noroeste 5 Noroeste 0 -- -- 93
2019-02-03 04:00:00 -2.3 3 Noroeste 7 Noroeste 0 -- -- 92
2019-02-03 03:00:00 -1.3 4 Noroeste 11 Oeste 0 -- -- 90
2019-02-03 02:00:00 -0.9 5 Oeste 9 Noroeste 0 -- -- 91
2019-02-03 01:00:00 -0.2 6 Noroeste 21 Noroeste 0 -- -- 87
2019-02-03 00:00:00 -0.1 9 Noroeste 18 Noroeste 0 -- -- 86
2019-02-02 23:00:00 0.6 10 Noroeste 21 Noroeste 0 -- -- 82
2019-02-02 22:00:00 1.7 13 Noroeste 33 Noroeste 0 -- -- 78
2019-02-02 21:00:00 2.3 12 Noroeste 29 Noroeste 0 -- -- 74
2019-02-02 20:00:00 2.6 13 Noroeste 26 Noroeste 0 -- -- 74
2019-02-02 19:00:00 3.1 15 Noroeste 37 Noroeste 0 -- -- 67
2019-02-02 18:00:00 4.9 22 Noroeste 35 Noroeste 0 -- -- 58
2019-02-02 17:00:00 5.7 21 Noroeste 34 Noroeste 0 -- -- 57
2019-02-02 16:00:00 5.3 15 Norte 50 Norte 0 -- -- 61
2019-02-02 15:00:00 5.9 27 Noroeste 48 Noroeste 0 -- -- 58
2019-02-02 14:00:00 5.5 25 Noroeste 41 Noroeste 0 -- -- 65
2019-02-02 13:00:00 4.3 16 Noroeste 32 Noroeste 0 -- -- 67
2019-02-02 12:00:00 3.7 21 Noroeste 33 Noroeste 0 -- -- 75
2019-02-02 11:00:00 2.9 21 Noroeste 39 Noroeste 0 -- -- 75
2019-02-02 10:00:00 1.8 18 Noroeste 31 Noroeste 0 -- -- 79
2019-02-02 09:00:00 0.6 17 Noroeste 35 Noroeste 0 -- -- 80
2019-02-02 08:00:00 1 23 Noroeste 46 Noroeste 0 -- -- 78
2019-02-02 07:00:00 0.8 19 Noroeste 39 Noroeste 0 -- -- 78
2019-02-02 06:00:00 0.6 15 Noroeste 37 Noroeste 0 -- -- 78
2019-02-02 05:00:00 1.4 24 Noroeste 43 Noroeste 0 -- -- 73
2019-02-02 04:00:00 1.7 22 Noroeste 49 Noroeste 0 -- -- 75
2019-02-02 03:00:00 2.4 22 Noroeste 42 Noroeste 0 -- -- 78
2019-02-02 02:00:00 2.5 14 Noroeste 31 Noroeste 0 -- -- 87
2019-02-02 01:00:00 2.3 20 Oeste 38 Oeste 0 -- -- 88
2019-02-02 00:00:00 2.6 26 Oeste 41 Noroeste 0 -- -- 87
2019-02-01 23:00:00 2.7 21 Oeste 37 Oeste 0 -- -- 89
2019-02-01 22:00:00 2.5 21 Oeste 35 Oeste 0 -- -- 91
2019-02-01 21:00:00 2.4 17 Oeste 36 Oeste 0 -- -- 92
2019-02-01 20:00:00 2.9 23 Oeste 34 Oeste 0 -- -- 91
2019-02-01 19:00:00 2.9 24 Oeste 37 Oeste 1.2 -- -- 93
2019-02-01 18:00:00 2.2 20 Oeste 51 Oeste 0.8 -- -- 92
2019-02-01 17:00:00 4 29 Oeste 51 Noroeste 0 -- -- 77
2019-02-01 16:00:00 4.6 34 Oeste 54 Noroeste 0 -- -- 76
2019-02-01 15:00:00 3.5 27 Oeste 48 Oeste 0 -- -- 91
2019-02-01 14:00:00 2.9 25 Oeste 63 Noroeste 2.2 -- -- 95
2019-02-01 13:00:00 3.4 26 Oeste 46 Oeste 3.2 -- -- 94
2019-02-01 12:00:00 3.7 28 Sudoeste 59 Oeste 1.2 -- -- 93
2019-02-01 11:00:00 3.5 33 Oeste 66 Sudoeste 4.4 -- -- 92
2019-02-01 10:00:00 4.1 31 Oeste 52 Sudoeste 1 -- -- 91
2019-02-01 09:00:00 3.7 27 Oeste 51 Oeste 0.8 -- -- 90
2019-02-01 08:00:00 4.1 28 Sudoeste 47 Oeste 0.2 -- -- 89
2019-02-01 07:00:00 4 25 Oeste 45 Oeste 0 -- -- 88
2019-02-01 06:00:00 4.9 22 Oeste 48 Sudoeste 0 -- -- 87
2019-02-01 05:00:00 5 24 Oeste 43 Oeste 0.2 -- -- 89
2019-02-01 04:00:00 5.6 23 Oeste 50 Sudoeste 0 -- -- 87
2019-02-01 03:00:00 5.6 18 Oeste 41 Sudoeste 0 -- -- 89
2019-02-01 02:00:00 5.9 13 Sudoeste 37 Oeste 0 -- -- 90
2019-02-01 01:00:00 6.7 18 Oeste 33 Oeste 0 -- -- 89
2019-02-01 00:00:00 7.1 24 Oeste 50 Oeste 0 -- -- 87
2019-01-31 23:00:00 8.1 17 Oeste 41 Sudoeste 2.2 -- -- 93
2019-01-31 22:00:00 9.3 25 Sudoeste 40 Sudoeste 5.4 -- -- 97
2019-01-31 21:00:00 8.9 18 Sudoeste 36 Sudoeste 2 -- -- 97
2019-01-31 20:00:00 8.8 22 Sudoeste 42 Sudoeste 0.4 -- -- 96
2019-01-31 19:00:00 8.7 27 Sudoeste 51 Sur 0.4 -- -- 95
2019-01-31 18:00:00 9.3 25 Sudoeste 45 Oeste 0 -- -- 93
2019-01-31 17:00:00 9.9 27 Sudoeste 49 Sudoeste 0.6 -- -- 92
2019-01-31 16:00:00 9.9 20 Sudoeste 47 Sudoeste 1 -- -- 93
2019-01-31 15:00:00 10.9 30 Sudoeste 62 Oeste 0 -- -- 89
2019-01-31 14:00:00 10.5 32 Oeste 53 Oeste 0 -- -- 91
2019-01-31 13:00:00 10.2 26 Sudoeste 40 Oeste 0 -- -- 92
2019-01-31 12:00:00 9.5 22 Sudoeste 35 Sudoeste 0 -- -- 94
2019-01-31 11:00:00 8.8 18 Sudoeste 30 Sudoeste 0 -- -- 95
2019-01-31 10:00:00 9.1 17 Sudoeste 41 Sudoeste 0 -- -- 92
2019-01-31 09:00:00 8.8 23 Sudoeste 45 Sudoeste 0 -- -- 93
2019-01-31 08:00:00 8.3 21 Sudoeste 44 Oeste 0 -- -- 93
2019-01-31 07:00:00 8.1 22 Sudoeste 41 Oeste 0 -- -- 91
2019-01-31 06:00:00 7.9 22 Oeste 43 Oeste 0 -- -- 89
2019-01-31 05:00:00 8 25 Oeste 47 Oeste 0 -- -- 89
2019-01-31 04:00:00 8.7 27 Oeste 48 Oeste 0 -- -- 88
2019-01-31 03:00:00 9.5 23 Oeste 43 Oeste 0 -- -- 93
2019-01-31 02:00:00 9.6 21 Oeste 35 Oeste 0 -- -- 95
2019-01-31 01:00:00 9 15 Sudoeste 36 Oeste 0 -- -- 93
2019-01-31 00:00:00 9.2 23 Oeste 37 Oeste 0.6 -- -- 97
2019-01-30 23:00:00 8.2 14 Sudoeste 26 Sudoeste 0.4 -- -- 97
2019-01-30 22:00:00 7.8 17 Sudoeste 26 Sudoeste 1.4 -- -- 97
2019-01-30 21:00:00 7.4 18 Sudoeste 29 Sudoeste 1 -- -- 97
2019-01-30 20:00:00 7.1 14 Sudoeste 30 Sudoeste 1.4 -- -- 96
2019-01-30 19:00:00 6.8 21 Sudoeste 38 Sur 0 -- -- 96
2019-01-30 18:00:00 6.4 18 Sudoeste 30 Sudoeste 0.4 -- -- 95
2019-01-30 17:00:00 6.5 18 Sudoeste 35 Sudoeste 0 -- -- 93
2019-01-30 16:00:00 6.5 13 Sudoeste 28 Sudoeste 1 -- -- 90
2019-01-30 15:00:00 6.4 12 Sudoeste 25 Sur 0 -- -- 86
2019-01-30 14:00:00 6.2 14 Sudoeste 27 Sudoeste 0 -- -- 79
2019-01-30 13:00:00 5.9 12 Sudoeste 23 Sudoeste 0 -- -- 84
2019-01-30 12:00:00 5.4 11 Oeste 21 Oeste 0 -- -- 86
2019-01-30 11:00:00 3.6 6 Sur 10 Sur 0 -- -- 95
2019-01-30 10:00:00 1.5 5 Sur 9 Sudoeste 0 -- -- 94
2019-01-30 09:00:00 1.1 5 Oeste 13 Oeste 0 -- -- 94
2019-01-30 08:00:00 1.4 10 Oeste 18 Oeste 0 -- -- 94
2019-01-30 07:00:00 1.4 8 Oeste 13 Oeste 0 -- -- 94
2019-01-30 06:00:00 2.4 7 Sudoeste 10 Sudoeste 0 -- -- 92
2019-01-30 05:00:00 2.4 2 Sudoeste 7 Sudoeste 0 -- -- 91
2019-01-30 04:00:00 3.1 6 Sudoeste 9 Oeste 0 -- -- 90
2019-01-30 03:00:00 3.2 7 Oeste 14 Oeste 0 -- -- 89
2019-01-30 02:00:00 2.8 5 Oeste 16 Oeste 0 -- -- 90
2019-01-30 01:00:00 3.2 11 Oeste 21 Noroeste 0 -- -- 88
2019-01-30 00:00:00 3.3 11 Noroeste 20 Oeste 0 -- -- 87
2019-01-29 23:00:00 3.9 8 Oeste 16 Oeste 0 -- -- 90
2019-01-29 22:00:00 4.1 10 Oeste 13 Oeste 0 -- -- 90
2019-01-29 21:00:00 4.7 12 Noroeste 21 Noroeste 0 -- -- 82
2019-01-29 20:00:00 5.8 12 Noroeste 35 Oeste 0 -- -- 78
2019-01-29 19:00:00 7.6 22 Noroeste 42 Noroeste 0 -- -- 82
2019-01-29 18:00:00 8 22 Oeste 40 Oeste 0 -- -- 96
2019-01-29 17:00:00 8.2 25 Oeste 43 Oeste 0 -- -- 92
2019-01-29 16:00:00 8.2 23 Oeste 44 Oeste 0 -- -- 88
2019-01-29 15:00:00 8.5 25 Oeste 52 Oeste 0 -- -- 83
2019-01-29 14:00:00 9.1 28 Oeste 49 Oeste 0 -- -- 78
2019-01-29 13:00:00 8 30 Oeste 45 Oeste 0 -- -- 83
2019-01-29 12:00:00 7.3 20 Oeste 40 Oeste 0 -- -- 91
2019-01-29 11:00:00 6.7 23 Oeste 37 Oeste 0 -- -- 94
2019-01-29 10:00:00 5.7 18 Oeste 31 Oeste 0 -- -- 96
2019-01-29 09:00:00 4.9 13 Sudoeste 25 Oeste 0 -- -- 96
2019-01-29 08:00:00 4.6 12 Sudoeste 23 Sudoeste 0 -- -- 95
2019-01-29 07:00:00 4.2 14 Oeste 22 Sudoeste 0 -- -- 95
2019-01-29 06:00:00 4.1 12 Oeste 23 Oeste 0 -- -- 96
2019-01-29 05:00:00 3.5 15 Oeste 24 Oeste 0 -- -- 96
2019-01-29 04:00:00 2.7 6 Oeste 16 Oeste 0 -- -- 96
2019-01-29 03:00:00 2.9 6 Sudoeste 13 Sudoeste 0 -- -- 94
2019-01-29 02:00:00 4.2 6 Sudoeste 12 Sudoeste 0 -- -- 94
2019-01-29 01:00:00 3.8 6 Oeste 13 Oeste 0 -- -- 94
2019-01-29 00:00:00 4 7 Oeste 13 Oeste 0 -- -- 91
2019-01-28 23:00:00 4.3 4 Oeste 11 Noroeste 0 -- -- 85
2019-01-28 22:00:00 6 8 Oeste 13 Sudoeste 0 -- -- 80
2019-01-28 21:00:00 6.2 3 Oeste 27 Noroeste 0 -- -- 87
2019-01-28 20:00:00 7.1 19 Noroeste 29 Noroeste 0 -- -- 84
2019-01-28 19:00:00 7.6 8 Oeste 36 Oeste 0 -- -- 81
2019-01-28 18:00:00 8.9 19 Noroeste 39 Noroeste 0 -- -- 78
2019-01-28 17:00:00 9.2 20 Noroeste 37 Noroeste 0 -- -- 78
2019-01-28 16:00:00 9.4 25 Noroeste 36 Oeste 0 -- -- 77
2019-01-28 15:00:00 7.9 11 Oeste 20 Oeste 0 -- -- 88
2019-01-28 14:00:00 7.4 12 Oeste 20 Oeste 0 -- -- 90
2019-01-28 13:00:00 7.1 12 Oeste 23 Oeste 0 -- -- 89
2019-01-28 12:00:00 7.1 11 Oeste 22 Oeste 0 -- -- 87
2019-01-28 11:00:00 6.3 12 Oeste 19 Oeste 0 -- -- 89
2019-01-28 10:00:00 5.2 12 Oeste 22 Oeste 0 -- -- 92
2019-01-28 09:00:00 4.6 10 Oeste 18 Oeste 0 -- -- 93
2019-01-28 08:00:00 4.4 13 Oeste 23 Oeste 0 -- -- 92
2019-01-28 07:00:00 4.4 17 Oeste 31 Oeste 0 -- -- 89
2019-01-28 06:00:00 4.2 8 Noroeste 17 Oeste 0 -- -- 87
2019-01-28 05:00:00 3.9 10 Oeste 19 Oeste 0 -- -- 86
2019-01-28 04:00:00 3.6 11 Oeste 17 Oeste 0 -- -- 85
2019-01-28 03:00:00 3.3 9 Noroeste 22 Noroeste 0 -- -- 87
2019-01-28 02:00:00 2.8 14 Noroeste 31 Noroeste 0 -- -- 84
2019-01-28 01:00:00 2.8 9 Noroeste 21 Noroeste 0 -- -- 81
2019-01-28 00:00:00 3.6 11 Noroeste 26 Noroeste 0 -- -- 74
2019-01-27 23:00:00 4.2 13 Noroeste 33 Noroeste 0 -- -- 71
2019-01-27 22:00:00 4.6 22 Noroeste 38 Noroeste 0 -- -- 69
2019-01-27 21:00:00 4.6 21 Noroeste 31 Noroeste 0 -- -- 69
2019-01-27 20:00:00 5.4 21 Noroeste 31 Noroeste 0 -- -- 68
2019-01-27 19:00:00 5.4 14 Noroeste 32 Noroeste 0 -- -- 69
2019-01-27 18:00:00 7.4 15 Noroeste 36 Noroeste 0 -- -- 61
2019-01-27 17:00:00 7.9 24 Noroeste 41 Noroeste 0 -- -- 62
2019-01-27 16:00:00 8.2 23 Noroeste 39 Noroeste 0 -- -- 66
2019-01-27 15:00:00 8.2 20 Noroeste 40 Noroeste 0 -- -- 63
2019-01-27 14:00:00 8 23 Noroeste 38 Noroeste 0 -- -- 65
2019-01-27 13:00:00 7.2 22 Noroeste 38 Noroeste 0 -- -- 69
2019-01-27 12:00:00 6.5 20 Noroeste 40 Noroeste 0 -- -- 71
2019-01-27 11:00:00 5.2 23 Noroeste 34 Noroeste 0 -- -- 75
2019-01-27 10:00:00 4.3 12 Noroeste 18 Noroeste 0 -- -- 80
2019-01-27 09:00:00 3.4 13 Noroeste 31 Noroeste 0 -- -- 87
2019-01-27 08:00:00 4.2 13 Noroeste 22 Oeste 0 -- -- 96
2019-01-27 07:00:00 3.9 10 Oeste 19 Oeste 0 -- -- 96
2019-01-27 06:00:00 3.5 12 Oeste 20 Oeste 0 -- -- 96
2019-01-27 05:00:00 2.5 6 Oeste 16 Sudoeste 0 -- -- 95
2019-01-27 04:00:00 3.3 11 Sudoeste 18 Sudoeste 0 -- -- 94
2019-01-27 03:00:00 4 7 Oeste 18 Oeste 0 -- -- 93
2019-01-27 02:00:00 3.9 4 Oeste 14 Oeste 0 -- -- 90
2019-01-27 01:00:00 5.1 10 Oeste 15 Sudoeste 0 -- -- 87
2019-01-27 00:00:00 5.6 9 Sudoeste 18 Oeste 0 -- -- 83
2019-01-26 23:00:00 6.3 11 Oeste 17 Oeste 0 -- -- 80
2019-01-26 22:00:00 6.4 8 Oeste 11 Oeste 0 -- -- 75
2019-01-26 21:00:00 7.4 5 Oeste 13 Sudoeste 0 -- -- 73
2019-01-26 20:00:00 7 3 Sudoeste 10 Sudoeste 0 -- -- 76
2019-01-26 19:00:00 9 4 Sudoeste 8 Oeste 0 -- -- 66
2019-01-26 18:00:00 12.4 6 Oeste 13 Oeste 0 -- -- 60
2019-01-26 17:00:00 13.1 9 Oeste 15 Oeste 0 -- -- 54
2019-01-26 16:00:00 13.1 8 Noroeste 12 Noroeste 0 -- -- 59
2019-01-26 15:00:00 12.1 3 Sudoeste 8 Oeste 0 -- -- 64
2019-01-26 14:00:00 10.5 3 Sudoeste 11 Oeste 0 -- -- 69
2019-01-26 13:00:00 8.5 4 Noroeste 10 Oeste 0 -- -- 76
2019-01-26 12:00:00 6.6 3 Norte 5 Noroeste 0 -- -- 82
2019-01-26 11:00:00 4.8 0 Calma 3 Noroeste 0 -- -- 84
2019-01-26 10:00:00 1.2 2 Noroeste 6 Oeste 0 -- -- 93
2019-01-26 09:00:00 0 4 Sudoeste 9 Este 0 -- -- 93
2019-01-26 08:00:00 0.9 9 Este 16 Este 0 -- -- 93
2019-01-26 07:00:00 0.3 5 Este 11 Este 0 -- -- 97
2019-01-26 06:00:00 -0.1 4 Nordeste 7 Nordeste 0 -- -- 94
2019-01-26 05:00:00 0.6 3 Nordeste 4 Noroeste 0 -- -- 93
2019-01-26 04:00:00 1.2 0 Calma 12 Este 0 -- -- 91
2019-01-26 03:00:00 3.2 9 Este 14 Este 0 -- -- 91
2019-01-26 02:00:00 2.2 7 Este 14 Este 0 -- -- 90
2019-01-26 01:00:00 3.8 12 Este 18 Este 0 -- -- 84
2019-01-26 00:00:00 3.2 7 Este 13 Este 0 -- -- 85
2019-01-25 23:00:00 3.2 4 Este 10 Nordeste 0 -- -- 89
2019-01-25 22:00:00 3.5 6 Este 8 Este 0 -- -- 88
2019-01-25 21:00:00 3.6 0 Calma 3 Norte 0 -- -- 89
2019-01-25 20:00:00 5.5 0 Calma 5 Norte 0 -- -- 77
2019-01-25 19:00:00 8.5 4 Norte 7 Nordeste 0 -- -- 63
2019-01-25 18:00:00 12.9 7 Nordeste 14 Nordeste 0 -- -- 52
2019-01-25 17:00:00 13.6 10 Nordeste 21 Nordeste 0 -- -- 49
2019-01-25 16:00:00 13.8 12 Nordeste 23 Este 0 -- -- 46
2019-01-25 15:00:00 13.2 13 Nordeste 28 Este 0 -- -- 50
2019-01-25 14:00:00 12.3 12 Este 26 Este 0 -- -- 61
2019-01-25 13:00:00 11.1 13 Este 27 Nordeste 0 -- -- 64
2019-01-25 12:00:00 9.8 15 Este 24 Este 0 -- -- 67
2019-01-25 11:00:00 6.7 12 Este 20 Este 0 -- -- 85
2019-01-25 10:00:00 3.1 10 Sudeste 15 Este 0 -- -- 99
2019-01-25 09:00:00 -0.1 6 Sudeste 9 Sudeste 0 -- -- 98
2019-01-25 08:00:00 1 8 Sudeste 11 Sudeste 0 -- -- 98
2019-01-25 07:00:00 0.7 5 Sudeste 10 Este 0 -- -- 97
2019-01-25 06:00:00 0.7 8 Este 10 Este 0 -- -- 98
2019-01-25 05:00:00 0.3 0 Calma 3 Sudeste 0 -- -- 97
2019-01-25 04:00:00 1.1 2 Sudeste 7 Sur 0 -- -- 95
2019-01-25 03:00:00 2.1 4 Noroeste 5 Noroeste 0 -- -- 96
2019-01-25 02:00:00 2.8 2 Noroeste 5 Noroeste 0 -- -- 93
2019-01-25 01:00:00 4 0 Calma 9 Oeste 0 -- -- 90
2019-01-25 00:00:00 5.5 4 Noroeste 10 Noroeste 0 -- -- 91
2019-01-24 23:00:00 6.3 6 Noroeste 14 Oeste 0 -- -- 90
2019-01-24 22:00:00 6.7 8 Noroeste 15 Noroeste 0 -- -- 89
2019-01-24 21:00:00 7.2 5 Oeste 15 Norte 0 -- -- 87
2019-01-24 20:00:00 8.1 10 Noroeste 21 Norte 0 -- -- 81
2019-01-24 19:00:00 10.1 14 Noroeste 26 Norte 0 -- -- 71
2019-01-24 18:00:00 12.6 13 Noroeste 31 Noroeste 0 -- -- 64
2019-01-24 17:00:00 13.2 19 Noroeste 35 Noroeste 0 -- -- 68
2019-01-24 16:00:00 13.1 22 Noroeste 35 Noroeste 0 -- -- 70
2019-01-24 15:00:00 13 25 Noroeste 48 Noroeste 0 -- -- 71
2019-01-24 14:00:00 13 27 Noroeste 47 Norte 0 -- -- 71
2019-01-24 13:00:00 12.1 30 Noroeste 45 Norte 0 -- -- 74
2019-01-24 12:00:00 11.4 27 Noroeste 41 Noroeste 0 -- -- 77
2019-01-24 11:00:00 10.4 22 Noroeste 38 Noroeste 0 -- -- 81
2019-01-24 10:00:00 9.1 23 Noroeste 40 Noroeste 0 -- -- 86
2019-01-24 09:00:00 8.3 20 Noroeste 30 Noroeste 0 -- -- 88
2019-01-24 08:00:00 8.7 22 Noroeste 42 Noroeste 0 -- -- 86
2019-01-24 07:00:00 8.5 18 Noroeste 32 Noroeste 0 -- -- 87
2019-01-24 06:00:00 8.6 20 Noroeste 32 Noroeste 0 -- -- 86
2019-01-24 05:00:00 8.3 14 Noroeste 30 Noroeste 0 -- -- 87
2019-01-24 04:00:00 7.5 18 Noroeste 36 Noroeste 0 -- -- 88
2019-01-24 03:00:00 8 18 Noroeste 39 Noroeste 0 -- -- 86
2019-01-24 02:00:00 7.8 18 Noroeste 28 Noroeste 0 -- -- 88
2019-01-24 01:00:00 7.8 16 Noroeste 36 Noroeste 0 -- -- 89
2019-01-24 00:00:00 8 14 Noroeste 26 Noroeste 0 -- -- 88
2019-01-23 23:00:00 8 14 Noroeste 40 Noroeste 0 -- -- 88
2019-01-23 22:00:00 8.5 16 Noroeste 31 Noroeste 0 -- -- 89
2019-01-23 21:00:00 8.9 15 Noroeste 31 Noroeste 0 -- -- 88
2019-01-23 20:00:00 8.9 24 Noroeste 39 Noroeste 0 -- -- 88
2019-01-23 19:00:00 9.3 20 Noroeste 35 Noroeste 0 -- -- 85
2019-01-23 18:00:00 9.6 20 Noroeste 32 Noroeste 0 -- -- 80
2019-01-23 17:00:00 10.2 17 Noroeste 45 Noroeste 0 -- -- 74
2019-01-23 16:00:00 10.9 26 Noroeste 48 Noroeste 0 -- -- 70
2019-01-23 15:00:00 10 20 Noroeste 37 Noroeste 0 -- -- 76
2019-01-23 14:00:00 9.5 15 Noroeste 34 Noroeste 0 -- -- 80
2019-01-23 13:00:00 9.3 18 Noroeste 41 Noroeste 0 -- -- 82
2019-01-23 12:00:00 8.1 20 Noroeste 41 Oeste 0 -- -- 89
2019-01-23 11:00:00 7.6 22 Oeste 43 Oeste 0 -- -- 91
2019-01-23 10:00:00 6.5 19 Oeste 30 Noroeste 0 -- -- 93
2019-01-23 09:00:00 6.2 19 Noroeste 33 Noroeste 0 -- -- 91
2019-01-23 08:00:00 6.3 21 Noroeste 42 Oeste 0 -- -- 89
2019-01-23 07:00:00 6 16 Oeste 34 Noroeste 0 -- -- 89
2019-01-23 06:00:00 5.7 14 Oeste 27 Oeste 0 -- -- 94
2019-01-23 05:00:00 5.6 15 Noroeste 28 Oeste 0 -- -- 95
2019-01-23 04:00:00 5.4 14 Noroeste 27 Oeste 0 -- -- 92
2019-01-23 03:00:00 5.4 16 Noroeste 28 Oeste 0 -- -- 91
2019-01-23 02:00:00 5.1 14 Oeste 24 Oeste 0 -- -- 90
2019-01-23 01:00:00 4.9 15 Oeste 27 Noroeste 0 -- -- 91
2019-01-23 00:00:00 4.6 14 Oeste 24 Oeste 0 -- -- 91
2019-01-22 23:00:00 4.5 9 Oeste 27 Noroeste 0 -- -- 91
2019-01-22 22:00:00 5.3 14 Noroeste 27 Noroeste 0 -- -- 94
2019-01-22 21:00:00 5.2 12 Noroeste 23 Noroeste 0 -- -- 96
2019-01-22 20:00:00 5 8 Oeste 16 Noroeste 0 -- -- 96
2019-01-22 19:00:00 5.9 10 Noroeste 20 Noroeste 0 -- -- 97
2019-01-22 18:00:00 6 8 Oeste 16 Oeste 0.2 -- -- 97
2019-01-22 17:00:00 5.4 9 Oeste 26 Sudoeste 0 -- -- 96
2019-01-22 16:00:00 5.4 13 Oeste 22 Oeste 1.2 -- -- 95
2019-01-22 15:00:00 5.6 15 Oeste 30 Oeste 0.2 -- -- 92
2019-01-22 14:00:00 6.5 14 Oeste 32 Oeste 0 -- -- 84
2019-01-22 13:00:00 5.7 13 Oeste 24 Oeste 0 -- -- 85
2019-01-22 12:00:00 4.5 15 Oeste 27 Oeste 0 -- -- 88
2019-01-22 11:00:00 3.4 14 Oeste 23 Oeste 0 -- -- 89
2019-01-22 10:00:00 2 10 Oeste 15 Oeste 0 -- -- 90
2019-01-22 09:00:00 1.3 8 Oeste 12 Oeste 0 -- -- 90
2019-01-22 08:00:00 0.9 6 Oeste 16 Oeste 0 -- -- 92
2019-01-22 07:00:00 1.2 8 Oeste 13 Oeste 0 -- -- 91
2019-01-22 06:00:00 1.4 6 Oeste 12 Oeste 0 -- -- 89
2019-01-22 05:00:00 1.4 8 Oeste 16 Oeste 0 -- -- 89
2019-01-22 04:00:00 1.5 8 Oeste 12 Oeste 0 -- -- 90
2019-01-22 03:00:00 0.9 5 Oeste 9 Oeste 0 -- -- 95
2019-01-22 02:00:00 -0.8 2 Sudoeste 5 Noroeste 0 -- -- 93
2019-01-22 01:00:00 -0.3 0 Calma 8 Sudoeste 0 -- -- 92
2019-01-22 00:00:00 1.2 5 Sudoeste 8 Sur 0 -- -- 93
2019-01-21 23:00:00 -0.4 2 Sur 3 Sur 0 -- -- 92
2019-01-21 22:00:00 -0.7 0 Calma 2 Sudeste 0 -- -- 91
2019-01-21 21:00:00 0.4 0 Calma 5 Sudeste 0 -- -- 86
2019-01-21 20:00:00 1.9 2 Sur 3 Sur 0 -- -- 87
2019-01-21 19:00:00 2.9 0 Calma 5 Sudeste 0 -- -- 82
2019-01-21 18:00:00 5.1 2 Sur 4 Sur 0 -- -- 77
2019-01-21 17:00:00 7 4 Sudeste 12 Sudeste 0 -- -- 71
2019-01-21 16:00:00 7.9 6 Nordeste 14 Este 0 -- -- 67
2019-01-21 15:00:00 7.4 4 Sudeste 17 Nordeste 0 -- -- 70
2019-01-21 14:00:00 6.6 6 Nordeste 12 Nordeste 0 -- -- 76
2019-01-21 13:00:00 5.3 4 Norte 8 Norte 0 -- -- 90
2019-01-21 12:00:00 2.7 3 Norte 6 Sudeste 0 -- -- 98
2019-01-21 11:00:00 1.1 0 Calma 3 Noroeste 0 -- -- 98
2019-01-21 10:00:00 -1.8 0 Calma 3 Sudeste 0 -- -- 98
2019-01-21 09:00:00 -3.5 0 Calma 2 Sudoeste 0 -- -- 97
2019-01-21 08:00:00 -3.2 0 Calma 3 Sur 0 -- -- 97
2019-01-21 07:00:00 -2.6 2 Sudoeste 4 Sudoeste 0 -- -- 97
2019-01-21 06:00:00 -2.2 0 Calma 4 Sudoeste 0 -- -- 96
2019-01-21 05:00:00 -2.5 0 Calma 2 Noroeste 0 -- -- 95
2019-01-21 04:00:00 -1.4 0 Calma 4 Noroeste 0 -- -- 95
2019-01-21 03:00:00 -0.9 3 Noroeste 4 Noroeste 0 -- -- 94
2019-01-21 02:00:00 0.7 2 Noroeste 8 Noroeste 0 -- -- 93
2019-01-21 01:00:00 1.2 5 Noroeste 10 Noroeste 0 -- -- 93
2019-01-21 00:00:00 1.7 6 Norte 10 Noroeste 0 -- -- 93
2019-01-20 23:00:00 2.5 6 Noroeste 12 Norte 0 -- -- 91
2019-01-20 22:00:00 3 4 Noroeste 14 Noroeste 0 -- -- 89
2019-01-20 21:00:00 4 8 Noroeste 19 Noroeste 0 -- -- 87
2019-01-20 20:00:00 4.8 10 Noroeste 20 Noroeste 0 -- -- 84
2019-01-20 19:00:00 5.8 10 Noroeste 23 Noroeste 0 -- -- 80
2019-01-20 18:00:00 7.9 14 Noroeste 27 Noroeste 0 -- -- 72
2019-01-20 17:00:00 8.7 18 Noroeste 35 Noroeste 0 -- -- 69
2019-01-20 16:00:00 8.2 18 Noroeste 30 Noroeste 0 -- -- 72
2019-01-20 15:00:00 8.5 21 Noroeste 33 Noroeste 0 -- -- 70
2019-01-20 14:00:00 8.1 20 Noroeste 35 Noroeste 0 -- -- 72
2019-01-20 13:00:00 7.3 22 Noroeste 36 Noroeste 0 -- -- 77
2019-01-20 12:00:00 6.2 22 Noroeste 37 Noroeste 0 -- -- 82
2019-01-20 11:00:00 5.1 19 Noroeste 33 Noroeste 0 -- -- 87
2019-01-20 10:00:00 3.6 15 Noroeste 23 Noroeste 0 -- -- 92
2019-01-20 09:00:00 2.6 14 Noroeste 23 Noroeste 0 -- -- 95
2019-01-20 08:00:00 2.5 9 Noroeste 21 Noroeste 0 -- -- 95
2019-01-20 07:00:00 3.1 12 Noroeste 25 Noroeste 0 -- -- 94
2019-01-20 06:00:00 3.7 17 Norte 27 Noroeste 0 -- -- 94
2019-01-20 05:00:00 4.8 13 Noroeste 29 Noroeste 0 -- -- 96
2019-01-20 04:00:00 5.3 17 Noroeste 31 Noroeste 0 -- -- 96
2019-01-20 03:00:00 6.4 17 Noroeste 37 Norte 0 -- -- 97
2019-01-20 02:00:00 7.3 19 Noroeste 37 Noroeste 0.8 -- -- 97
2019-01-20 01:00:00 7.2 8 Oeste 26 Norte 5.2 -- -- 98
2019-01-20 00:00:00 7 12 Sudoeste 20 Sudoeste 0.2 -- -- 98
2019-01-19 23:00:00 6.6 14 Sudoeste 23 Sudoeste 0.2 -- -- 97
2019-01-19 22:00:00 6.2 15 Sudoeste 27 Sudoeste 0.4 -- -- 97
2019-01-19 21:00:00 5.9 14 Sudoeste 26 Sudoeste 0.2 -- -- 96
2019-01-19 20:00:00 5.3 13 Sur 26 Sur 0 -- -- 96
2019-01-19 19:00:00 5.6 15 Sudoeste 30 Sudoeste 0 -- -- 95
2019-01-19 18:00:00 5.8 16 Sudoeste 40 Sudoeste 0.6 -- -- 95
2019-01-19 17:00:00 5.5 14 Sur 32 Sudoeste 1.2 -- -- 96
2019-01-19 16:00:00 5.9 18 Sur 36 Sur 0.2 -- -- 95
2019-01-19 15:00:00 5.7 19 Sur 37 Sudoeste 0.2 -- -- 96
2019-01-19 14:00:00 5.4 18 Sudoeste 32 Sudoeste 0 -- -- 97
2019-01-19 13:00:00 4.2 14 Sur 24 Sur 0.8 -- -- 97
2019-01-19 12:00:00 3.8 12 Sur 22 Sur 1.2 -- -- 96
2019-01-19 11:00:00 3.2 13 Sur 21 Sur 0.2 -- -- 96
2019-01-19 10:00:00 2.5 9 Sur 16 Sur 0.4 -- -- 96
2019-01-19 09:00:00 2.1 9 Sur 14 Sur 0 -- -- 95
2019-01-19 08:00:00 2 8 Sur 12 Sur 0 -- -- 95
2019-01-19 07:00:00 1.9 9 Sur 16 Sur 0 -- -- 95
2019-01-19 06:00:00 2 10 Sur 15 Sur 0 -- -- 96
2019-01-19 05:00:00 1.8 5 Sur 10 Sur 0 -- -- 96
2019-01-19 04:00:00 1.8 5 Sur 7 Sur 0 -- -- 96
2019-01-19 03:00:00 1.9 2 Sur 3 Sur 0 -- -- 97
2019-01-19 02:00:00 1.2 0 Calma 3 Este 0 -- -- 96
2019-01-19 01:00:00 0.9 2 Sur 3 Sudeste 0 -- -- 97
2019-01-19 00:00:00 -0.7 0 Calma 4 Este 0 -- -- 95